Espartinas, Spain
Current Conditions -  °F | °C
As of 11:30 AM on Monday 26 Jan 2015 (Local Time) from LEZL Reporting Station
Clear Clear  
Wind Chill: 50°   Ceiling: Unl
Heat Index: 50°   Visibility: 6mi
Dew Point: 39°   Wind: 6mph
Humidity: 66%   Direction: 30°NNE
Pressure: 30.36"   Gusts: NA
Location:  37.38°N, 6.13°W
Report Text: LEZL 261030Z 03005KT 360V070 CAVOK 10/04 Q1028 NOSIG
Loading
Personal Weather Stations






























Interactive Weather Map New forecast layout! Learn more

10-Day Weather Forecast

Advertisements
Track Severe Weather on mobile